Time;durP1;ratioP1;P1;durP2;ratioP2;P2;SDS_P1;SDS_P2;PMS_P1;PMS_P2;Temp;Humidity;BMP_temperature;BMP_pressure;BME280_temperature;BME280_humidity;BME280_pressure;Samples;Min_cycle;Max_cycle;Signal;HPM_P1;HPM_P2
2023/04/03 00:00:29;;;;;;;6.18;1.55;;;;;;;6.50;64.02;101268.31;4972906;28;20469;-80
2023/04/03 00:02:56;;;;;;;4.40;1.45;;;;;;;6.47;64.09;101264.91;4972692;28;20066;-80
2023/04/03 00:05:22;;;;;;;5.95;1.52;;;;;;;6.44;64.07;101270.16;4989678;28;20428;-80
2023/04/03 00:07:49;;;;;;;4.82;1.80;;;;;;;6.39;64.28;101268.47;4989546;28;20058;-80
2023/04/03 00:10:16;;;;;;;7.30;1.92;;;;;;;6.35;64.23;101282.50;4989967;28;20069;-79
2023/04/03 00:12:43;;;;;;;3.97;1.15;;;;;;;6.31;64.33;101267.72;4990313;28;20047;-80
2023/04/03 00:15:09;;;;;;;6.15;1.65;;;;;;;6.27;64.13;101270.44;4993389;28;20062;-80
2023/04/03 00:17:36;;;;;;;7.40;1.83;;;;;;;6.23;64.41;101282.66;4975800;28;20065;-80
2023/04/03 00:20:03;;;;;;;5.78;1.90;;;;;;;6.17;64.29;101282.75;4993359;28;20141;-80
2023/04/03 00:22:30;;;;;;;7.18;1.65;;;;;;;6.12;64.48;101282.81;4993221;28;20057;-80
2023/04/03 00:24:56;;;;;;;6.15;1.40;;;;;;;6.05;64.40;101278.56;4975465;28;20077;-80
2023/04/03 00:27:22;;;;;;;5.22;1.60;;;;;;;6.02;64.52;101283.81;4992868;28;20109;-80
2023/04/03 00:29:49;;;;;;;3.05;1.42;;;;;;;5.95;64.79;101280.41;4993305;28;20078;-80
2023/04/03 00:32:15;;;;;;;4.28;1.40;;;;;;;5.92;64.58;101286.53;4993175;28;20050;-80
2023/04/03 00:34:42;;;;;;;5.10;1.80;;;;;;;5.89;64.81;101280.47;4993045;28;20062;-80
2023/04/03 00:37:08;;;;;;;4.93;1.42;;;;;;;5.86;64.86;101289.22;4992506;28;20050;-80
2023/04/03 00:39:35;;;;;;;7.15;1.58;;;;;;;5.83;64.88;101284.03;4993187;28;20062;-80
2023/04/03 00:42:01;;;;;;;6.22;1.58;;;;;;;5.81;64.83;101284.06;4992869;28;20046;-80
2023/04/03 00:44:28;;;;;;;3.47;1.35;;;;;;;5.81;64.84;101278.84;4992932;28;20058;-80
2023/04/03 00:46:54;;;;;;;4.18;1.50;;;;;;;5.79;64.58;101287.56;4992248;28;20050;-80
2023/04/03 00:49:21;;;;;;;3.58;1.33;;;;;;;5.75;64.83;101286.72;4975459;28;20433;-80
2023/04/03 00:51:47;;;;;;;3.78;1.55;;;;;;;5.73;65.02;101289.34;4992694;28;20058;-80
2023/04/03 00:54:14;;;;;;;8.18;1.73;;;;;;;5.70;65.27;101292.03;4992797;28;20425;-80
2023/04/03 00:56:41;;;;;;;4.68;2.03;;;;;;;5.69;65.03;101281.59;4992031;28;20117;-79
2023/04/03 00:59:21;;;;;;;6.28;2.00;;;;;;;5.64;64.31;101280.78;4992854;28;20061;-80
2023/04/03 01:01:54;;;;;;;3.08;1.38;;;;;;;5.63;65.38;101285.13;4975660;28;20058;-80
2023/04/03 01:04:28;;;;;;;3.45;1.33;;;;;;;5.58;64.47;101285.19;4975268;28;20058;-80
2023/04/03 01:07:03;;;;;;;6.63;1.95;;;;;;;5.57;64.58;101285.22;4991621;28;20057;-79
2023/04/03 01:09:31;;;;;;;2.75;1.20;;;;;;;5.56;65.07;101286.06;4992680;28;20062;-80
2023/04/03 01:12:31;;;;;;;6.20;1.63;;;;;;;5.48;64.01;101286.16;4992576;28;20086;-80
2023/04/03 01:15:00;;;;;;;3.30;1.55;;;;;;;5.48;65.22;101286.16;4992412;28;20068;-80
2023/04/03 01:17:37;;;;;;;4.97;1.67;;;;;;;5.43;64.40;101290.59;4991954;28;20054;-80
2023/04/03 01:20:30;;;;;;;3.15;1.30;;;;;;;5.38;63.84;101297.63;4992452;28;20066;-80
2023/04/03 01:23:05;;;;;;;5.90;2.10;;;;;;;5.35;64.00;101293.28;4955269;28;20097;-80
2023/04/03 01:25:33;;;;;;;2.92;1.30;;;;;;;5.33;65.46;101298.53;4990979;28;20112;-80
2023/04/03 01:28:00;;;;;;;7.43;1.77;;;;;;;5.28;65.29;101292.50;4991681;28;20069;-80
2023/04/03 01:30:31;;;;;;;6.90;1.73;;;;;;;5.22;64.64;101297.75;4975014;28;20105;-80
2023/04/03 01:32:58;;;;;;;4.72;1.73;;;;;;;5.19;65.49;101289.94;4992097;28;20086;-80
2023/04/03 01:35:24;;;;;;;4.93;1.77;;;;;;;5.15;65.47;101296.06;4991662;28;20504;-80
2023/04/03 01:37:51;;;;;;;4.28;1.50;;;;;;;5.12;65.40;101299.56;4991370;28;20469;-80
2023/04/03 01:40:17;;;;;;;4.00;1.25;;;;;;;5.08;65.71;101301.38;4992151;28;20112;-80
2023/04/03 01:42:44;;;;;;;5.18;1.60;;;;;;;5.06;65.73;101299.66;4991719;28;20058;-80
2023/04/03 01:45:10;;;;;;;3.25;1.30;;;;;;;5.06;65.57;101308.34;4991707;28;20089;-79
2023/04/03 01:47:37;;;;;;;4.72;1.42;;;;;;;5.03;65.73;101308.38;4991116;28;20103;-80
2023/04/03 01:50:04;;;;;;;4.25;1.85;;;;;;;5.02;65.71;101311.88;4991843;28;20090;-80
2023/04/03 01:52:30;;;;;;;6.35;1.95;;;;;;;5.00;65.69;101311.00;4991850;28;20054;-80
2023/04/03 01:54:57;;;;;;;3.85;1.52;;;;;;;4.97;65.73;101304.94;4974232;28;20128;-80
2023/04/03 01:57:23;;;;;;;4.60;1.27;;;;;;;4.93;65.91;101301.47;4991210;28;20054;-80
2023/04/03 01:59:51;;;;;;;2.83;1.40;;;;;;;4.91;65.78;101303.25;4991696;28;20084;-80
2023/04/03 02:02:18;;;;;;;4.93;1.45;;;;;;;4.86;65.83;101308.50;4974101;28;20062;-81
2023/04/03 02:04:45;;;;;;;4.90;1.60;;;;;;;4.83;65.58;101308.53;4991246;28;20607;-80
2023/04/03 02:07:11;;;;;;;1.75;1.20;;;;;;;4.78;65.53;101303.34;4991205;28;20070;-80
2023/04/03 02:09:38;;;;;;;6.70;1.77;;;;;;;4.73;65.67;101305.13;4991405;28;20050;-80
2023/04/03 02:12:04;;;;;;;3.53;1.52;;;;;;;4.69;65.59;101308.63;4991474;28;20479;-80
2023/04/03 02:14:31;;;;;;;4.15;1.73;;;;;;;4.63;65.47;101309.53;4991383;28;20065;-79
2023/04/03 02:16:57;;;;;;;5.18;1.10;;;;;;;4.57;65.90;101318.28;4990579;28;20062;-79
2023/04/03 02:19:24;;;;;;;4.13;1.63;;;;;;;4.53;65.83;101318.31;4991105;28;20465;-79
2023/04/03 02:21:50;;;;;;;6.60;1.70;;;;;;;4.47;65.65;101314.00;4974058;28;20128;-80
2023/04/03 02:24:16;;;;;;;6.05;1.15;;;;;;;4.42;66.12;101319.22;4991088;28;20116;-80
2023/04/03 02:26:43;;;;;;;6.25;1.75;;;;;;;4.40;66.11;101326.22;4973091;28;20057;-80
2023/04/03 02:29:09;;;;;;;3.47;1.40;;;;;;;4.35;66.06;101319.28;4991006;28;20054;-79
2023/04/03 02:31:35;;;;;;;4.03;1.27;;;;;;;4.31;66.19;101313.25;4991019;28;20058;-79
2023/04/03 02:34:02;;;;;;;5.63;1.42;;;;;;;4.27;66.10;101314.13;4990860;28;20058;-80
2023/04/03 02:36:28;;;;;;;5.00;1.50;;;;;;;4.23;66.13;101320.22;4990531;28;20066;-80
2023/04/03 02:38:58;;;;;;;3.58;1.48;;;;;;;4.17;66.06;101318.50;4991044;28;20106;-80
2023/04/03 02:41:27;;;;;;;2.70;1.17;;;;;;;4.13;66.06;101319.41;4991071;28;20105;-80
2023/04/03 02:43:54;;;;;;;4.55;1.52;;;;;;;4.08;66.38;101318.56;4990674;28;20461;-80
2023/04/03 02:46:20;;;;;;;3.67;1.25;;;;;;;4.03;66.36;101321.19;4973149;28;20117;-80
2023/04/03 02:48:46;;;;;;;3.13;1.40;;;;;;;4.00;66.25;101319.47;4990466;28;20072;-80
2023/04/03 02:51:13;;;;;;;5.00;1.30;;;;;;;3.96;66.49;101329.91;4973618;28;20058;-80
2023/04/03 02:53:39;;;;;;;4.30;1.52;;;;;;;3.93;66.40;101319.50;4990849;28;20101;-80
2023/04/03 02:56:06;;;;;;;4.43;1.45;;;;;;;3.90;67.02;101320.38;4973025;28;20050;-80
2023/04/03 02:58:32;;;;;;;6.45;1.45;;;;;;;3.89;66.91;101326.47;4990313;28;20108;-79
2023/04/03 03:00:58;;;;;;;4.40;1.38;;;;;;;3.87;66.89;101322.97;4990601;28;20062;-80
2023/04/03 03:03:25;;;;;;;4.70;1.35;;;;;;;3.87;66.87;101322.97;4990744;28;20058;-80
2023/04/03 03:06:01;;;;;;;3.63;1.15;;;;;;;3.83;65.56;101323.88;4990308;28;20109;-79
2023/04/03 03:08:27;;;;;;;3.40;1.17;;;;;;;3.84;67.01;101328.19;4990244;28;20062;-80
2023/04/03 03:10:54;;;;;;;4.80;1.60;;;;;;;3.82;66.78;101329.97;4990609;28;20062;-80
2023/04/03 03:13:20;;;;;;;2.28;1.23;;;;;;;3.80;66.97;101331.69;4990716;28;20058;-80
2023/04/03 03:15:46;;;;;;;4.85;1.48;;;;;;;3.77;66.64;101333.44;4990133;28;20065;-79
2023/04/03 03:18:13;;;;;;;4.35;1.23;;;;;;;3.77;66.84;101335.16;4990544;28;20447;-80
2023/04/03 03:20:39;;;;;;;2.78;1.73;;;;;;;3.76;66.87;101331.72;4990489;28;20089;-80
2023/04/03 03:23:06;;;;;;;6.95;1.45;;;;;;;3.75;66.60;101335.19;4990493;28;20054;-80
2023/04/03 03:25:32;;;;;;;5.72;1.30;;;;;;;3.76;66.70;101338.66;4990101;28;20059;-80
2023/04/03 03:27:59;;;;;;;5.70;1.42;;;;;;;3.74;66.84;101336.03;4989905;28;20050;-80
2023/04/03 03:30:25;;;;;;;4.28;1.08;;;;;;;3.73;67.14;101331.72;4990775;28;20084;-80
2023/04/03 03:32:52;;;;;;;3.42;1.30;;;;;;;3.76;66.65;101341.25;4973116;28;20444;-80
2023/04/03 03:35:18;;;;;;;4.97;1.60;;;;;;;3.74;66.92;101333.44;4988884;28;20046;-80
2023/04/03 03:37:45;;;;;;;7.82;1.67;;;;;;;3.73;66.99;101336.94;4989215;28;20683;-80
2023/04/03 03:40:12;;;;;;;3.08;1.30;;;;;;;3.72;66.93;101334.31;4989141;28;20089;-80
2023/04/03 03:42:39;;;;;;;5.78;1.13;;;;;;;3.71;66.80;101337.81;4989991;28;20077;-80
2023/04/03 03:45:07;;;;;;;9.98;2.00;;;;;;;3.69;67.03;101335.19;4972887;28;20073;-80
2023/04/03 03:50:08;;;;;;;6.40;1.73;;;;;;;3.68;67.03;101345.63;5000801;23;20708;-78
2023/04/03 03:52:35;;;;;;;9.05;1.52;;;;;;;3.66;66.80;101348.22;4993186;28;20054;-78
2023/04/03 03:55:02;;;;;;;5.05;1.80;;;;;;;3.62;67.04;101349.97;4994149;28;20133;-78
2023/04/03 03:57:28;;;;;;;7.43;1.55;;;;;;;3.60;67.00;101341.31;4994153;28;20058;-78
2023/04/03 03:59:57;;;;;;;3.40;1.50;;;;;;;3.58;67.26;101358.66;4994737;28;20058;-77
2023/04/03 04:02:23;;;;;;;6.82;1.55;;;;;;;3.56;67.07;101356.94;4994373;28;20869;-78
2023/04/03 04:04:50;;;;;;;3.78;1.20;;;;;;;3.54;67.25;101345.66;4993994;28;20050;-78
2023/04/03 04:07:16;;;;;;;2.67;1.52;;;;;;;3.49;67.15;101349.16;4993914;28;20058;-78
2023/04/03 04:09:43;;;;;;;6.05;1.60;;;;;;;3.47;67.41;101355.19;4994295;28;20162;-78
2023/04/03 04:12:09;;;;;;;5.10;1.50;;;;;;;3.44;67.00;101352.63;4994492;28;20050;-78
2023/04/03 04:14:36;;;;;;;4.68;1.73;;;;;;;3.41;67.11;101356.09;4994361;28;20533;-78
2023/04/03 04:17:02;;;;;;;7.65;1.73;;;;;;;3.40;67.16;101362.16;4993495;28;20058;-78
2023/04/03 04:19:29;;;;;;;5.47;1.55;;;;;;;3.37;67.34;101357.81;4994273;28;20065;-78
2023/04/03 04:21:56;;;;;;;2.95;1.13;;;;;;;3.35;67.42;101363.91;4993948;28;20062;-78
2023/04/03 04:24:22;;;;;;;3.22;1.42;;;;;;;3.34;67.28;101362.16;4992578;28;20058;-78
2023/04/03 04:26:49;;;;;;;9.95;1.85;;;;;;;3.32;67.52;101369.13;4993408;28;20113;-78
2023/04/03 04:29:16;;;;;;;5.68;1.80;;;;;;;3.30;67.64;101363.03;4994000;28;20081;-78
2023/04/03 04:31:42;;;;;;;4.32;1.50;;;;;;;3.29;67.74;101369.13;4993890;28;20046;-78
2023/04/03 04:34:09;;;;;;;3.05;1.30;;;;;;;3.26;67.57;101370.84;4993750;28;20594;-78
2023/04/03 04:36:35;;;;;;;6.80;2.47;;;;;;;3.25;67.90;101371.72;4992986;28;20537;-78
2023/04/03 04:39:02;;;;;;;5.47;1.88;;;;;;;3.24;67.59;101379.50;4976375;28;20057;-78
2023/04/03 04:41:29;;;;;;;9.85;1.95;;;;;;;3.22;67.50;101382.13;4993881;28;20050;-78
2023/04/03 04:43:55;;;;;;;5.50;1.83;;;;;;;3.20;67.84;101383.88;4993843;28;20090;-78
2023/04/03 04:46:22;;;;;;;3.63;1.73;;;;;;;3.18;68.05;101390.78;4993362;28;20419;-78
2023/04/03 04:48:48;;;;;;;5.95;2.00;;;;;;;3.17;67.59;101385.63;4992984;28;20407;-78
2023/04/03 04:51:15;;;;;;;8.52;1.73;;;;;;;3.13;68.13;101398.59;4993735;28;20097;-78
2023/04/03 04:53:42;;;;;;;6.03;1.55;;;;;;;3.10;67.43;101393.41;4993335;28;20086;-78
2023/04/03 04:56:09;;;;;;;4.85;1.42;;;;;;;3.08;67.93;101392.53;4993020;28;20400;-79
2023/04/03 04:58:36;;;;;;;8.13;1.60;;;;;;;3.06;67.70;101404.66;4991823;28;20050;-78
2023/04/03 05:01:07;;;;;;;5.70;1.67;;;;;;;3.03;67.83;101398.59;4993523;28;20066;-78
2023/04/03 05:03:34;;;;;;;4.38;1.70;;;;;;;3.02;68.09;101399.47;4993400;28;20149;-78
2023/04/03 05:06:00;;;;;;;5.88;1.50;;;;;;;3.00;68.10;101400.31;4992832;28;20062;-78
2023/04/03 05:08:27;;;;;;;2.58;1.30;;;;;;;2.99;68.14;101406.41;4993053;28;20067;-79
2023/04/03 05:10:54;;;;;;;4.72;1.70;;;;;;;2.98;68.20;101404.66;4993332;28;20054;-78
2023/04/03 05:13:21;;;;;;;5.80;1.80;;;;;;;2.98;68.49;101409.00;4993097;28;20051;-78
2023/04/03 05:15:48;;;;;;;4.45;1.52;;;;;;;2.97;68.13;101409.88;4992723;28;20059;-78
2023/04/03 05:18:15;;;;;;;4.85;1.65;;;;;;;2.96;68.36;101408.97;4992669;28;20050;-78
2023/04/03 05:20:43;;;;;;;4.45;1.58;;;;;;;2.96;68.45;101415.94;4992802;28;20066;-78
2023/04/03 05:23:11;;;;;;;7.35;1.83;;;;;;;2.94;68.34;101418.53;4993144;28;20068;-78
2023/04/03 05:25:38;;;;;;;5.93;1.60;;;;;;;2.93;67.93;101414.19;4992558;28;20057;-78
2023/04/03 05:28:05;;;;;;;5.97;1.63;;;;;;;2.93;68.58;101414.19;4992637;28;20141;-78
2023/04/03 05:30:31;;;;;;;5.65;1.50;;;;;;;2.91;68.39;101413.31;4992795;28;20057;-78
2023/04/03 05:32:59;;;;;;;4.50;1.75;;;;;;;2.89;68.46;101414.19;4992709;28;20086;-78
2023/04/03 05:35:25;;;;;;;4.55;1.70;;;;;;;2.89;68.37;101420.25;4992091;28;20569;-78
2023/04/03 05:37:52;;;;;;;6.10;1.60;;;;;;;2.88;68.80;101418.53;4992458;28;20086;-78
2023/04/03 05:40:19;;;;;;;4.40;1.45;;;;;;;2.87;68.88;101421.97;4992634;28;20046;-78
2023/04/03 05:42:45;;;;;;;6.97;1.70;;;;;;;2.87;68.33;101427.19;4992608;28;20050;-79
2023/04/03 05:45:12;;;;;;;4.68;1.50;;;;;;;2.88;69.13;101434.16;4992088;28;20108;-78
2023/04/03 05:47:38;;;;;;;4.07;1.33;;;;;;;2.90;68.50;101427.19;4992026;28;20085;-78
2023/04/03 05:50:06;;;;;;;5.30;1.40;;;;;;;2.90;69.13;101427.19;4992445;28;20053;-77
2023/04/03 05:52:37;;;;;;;5.70;1.77;;;;;;;2.90;68.37;101432.41;4992532;28;20093;-77
2023/04/03 05:55:05;;;;;;;6.80;1.73;;;;;;;2.94;69.09;101439.34;4991967;28;20058;-77
2023/04/03 05:57:31;;;;;;;4.85;1.65;;;;;;;2.95;68.57;101435.03;4991883;28;20133;-77
2023/04/03 05:59:58;;;;;;;2.80;1.20;;;;;;;2.94;69.15;101434.13;4992113;28;20154;-78
2023/04/03 06:02:25;;;;;;;5.93;1.48;;;;;;;2.95;68.69;101435.88;4992055;28;20054;-78
2023/04/03 06:04:52;;;;;;;5.90;1.45;;;;;;;2.97;69.12;101443.69;4991740;28;20068;-79
2023/04/03 06:07:22;;;;;;;3.92;1.27;;;;;;;2.96;69.36;101442.81;4991485;28;20062;-78
2023/04/03 06:09:51;;;;;;;9.05;1.83;;;;;;;2.98;69.09;101437.59;4992002;28;20117;-78
2023/04/03 06:12:18;;;;;;;7.10;1.92;;;;;;;3.02;69.59;101448.91;4991429;28;20069;-78
2023/04/03 06:14:45;;;;;;;4.55;1.25;;;;;;;3.03;69.24;101443.69;4974126;28;20050;-78
2023/04/03 06:17:12;;;;;;;5.38;1.52;;;;;;;3.07;69.26;101444.56;4991584;28;20058;-78
2023/04/03 06:19:39;;;;;;;5.40;1.65;;;;;;;3.09;69.40;101448.91;4991831;28;20058;-78
2023/04/03 06:22:05;;;;;;;5.80;1.80;;;;;;;3.13;69.46;101455.84;4991737;28;20101;-78
2023/04/03 06:24:32;;;;;;;4.45;1.50;;;;;;;3.17;69.54;101463.69;4991836;28;20404;-77
2023/04/03 06:26:59;;;;;;;8.55;2.35;;;;;;;3.20;69.19;101458.44;4990906;28;20776;-78
2023/04/03 06:29:25;;;;;;;3.78;1.35;;;;;;;3.25;69.26;101464.53;4991653;28;20061;-78
2023/04/03 06:31:52;;;;;;;8.77;1.77;;;;;;;3.29;69.62;101468.03;4990630;28;20055;-78
2023/04/03 06:34:18;;;;;;;8.45;1.85;;;;;;;3.32;69.32;101473.25;4991552;28;20452;-78
2023/04/03 06:36:45;;;;;;;4.82;1.30;;;;;;;3.36;69.26;101478.44;4990795;28;20086;-78
2023/04/03 06:39:14;;;;;;;5.38;1.38;;;;;;;3.39;68.94;101477.56;4991657;28;20050;-78
2023/04/03 06:41:41;;;;;;;7.25;1.33;;;;;;;3.44;69.66;101482.78;4974423;28;20470;-78
2023/04/03 06:44:10;;;;;;;3.75;1.27;;;;;;;3.47;69.43;101480.16;4991436;28;20482;-78
2023/04/03 06:46:38;;;;;;;5.50;1.77;;;;;;;3.50;69.38;101486.25;4990888;28;20055;-78
2023/04/03 06:49:07;;;;;;;4.53;1.60;;;;;;;3.55;69.57;101485.41;4991305;28;20058;-78
2023/04/03 06:51:35;;;;;;;5.25;1.73;;;;;;;3.59;69.42;101494.94;4991616;28;20051;-78
2023/04/03 06:54:03;;;;;;;4.07;1.50;;;;;;;3.63;69.57;101494.09;4974210;28;20052;-78
2023/04/03 06:56:29;;;;;;;4.30;1.80;;;;;;;3.68;69.55;101492.34;4990901;28;20137;-77
2023/04/03 06:59:00;;;;;;;3.42;1.50;;;;;;;3.73;69.49;101498.41;4991299;28;20154;-77
2023/04/03 07:01:29;;;;;;;4.95;1.55;;;;;;;3.76;69.41;101482.78;4991380;28;20148;-77
2023/04/03 07:03:56;;;;;;;7.00;2.25;;;;;;;3.82;69.66;101494.06;4991142;28;20598;-77
2023/04/03 07:06:26;;;;;;;6.20;1.50;;;;;;;3.85;69.40;101491.47;4990820;28;20100;-77
2023/04/03 07:08:54;;;;;;;4.97;1.42;;;;;;;3.87;69.44;101500.13;4990807;28;20526;-77
2023/04/03 07:11:21;;;;;;;6.03;1.52;;;;;;;3.90;69.29;101500.97;4991348;28;20411;-77
2023/04/03 07:13:48;;;;;;;5.40;1.50;;;;;;;3.94;69.45;101508.81;4991251;28;20073;-78
2023/04/03 07:16:14;;;;;;;4.88;1.45;;;;;;;3.98;69.58;101511.41;4990624;28;20507;-78
2023/04/03 07:18:41;;;;;;;5.03;1.60;;;;;;;4.03;69.38;101511.41;4990763;28;20054;-78
2023/04/03 07:21:08;;;;;;;3.72;1.55;;;;;;;4.08;69.19;101511.41;4990810;28;20503;-77
2023/04/03 07:23:34;;;;;;;5.32;1.60;;;;;;;4.14;69.42;101516.59;4992855;28;20140;-78
2023/04/03 07:26:01;;;;;;;5.88;1.90;;;;;;;4.20;69.12;101515.72;4994863;28;20066;-78
2023/04/03 07:28:29;;;;;;;7.15;1.40;;;;;;;4.26;69.19;101521.78;4994673;28;20055;-77
2023/04/03 07:31:08;;;;;;;6.43;1.70;;;;;;;4.32;67.47;101527.84;4995089;28;20054;-78
2023/04/03 07:33:36;;;;;;;5.05;1.55;;;;;;;4.40;68.97;101529.59;4994864;28;20073;-77
2023/04/03 07:36:06;;;;;;;5.88;1.25;;;;;;;4.46;68.81;101535.66;4994441;28;20062;-77
2023/04/03 07:38:35;;;;;;;4.47;1.58;;;;;;;4.50;68.59;101530.44;4994704;28;20098;-77
2023/04/03 07:41:03;;;;;;;8.27;1.67;;;;;;;4.55;68.61;101531.28;4994671;28;20129;-77
2023/04/03 07:43:29;;;;;;;3.90;1.40;;;;;;;4.60;68.29;101530.41;4976836;28;20499;-77
2023/04/03 07:45:56;;;;;;;6.18;1.60;;;;;;;4.65;68.85;101531.25;4992009;28;20066;-78
2023/04/03 07:48:25;;;;;;;3.75;1.63;;;;;;;4.69;68.55;101532.97;4993972;28;20113;-78
2023/04/03 07:50:52;;;;;;;5.60;1.80;;;;;;;4.75;68.20;101537.31;4994536;28;20085;-78
2023/04/03 07:53:19;;;;;;;5.68;2.08;;;;;;;4.78;68.08;101532.94;4994787;28;20055;-77
2023/04/03 07:55:47;;;;;;;4.43;1.60;;;;;;;4.85;67.81;101535.53;4994212;28;20061;-77
2023/04/03 07:58:17;;;;;;;5.80;1.30;;;;;;;4.88;67.40;101540.72;4992811;28;20057;-78
2023/04/03 08:00:44;;;;;;;2.88;1.05;;;;;;;4.95;67.81;101534.59;4994504;28;20198;-77
2023/04/03 08:03:12;;;;;;;3.88;1.55;;;;;;;4.99;67.72;101540.66;4976945;28;20090;-77
2023/04/03 08:05:41;;;;;;;5.10;1.40;;;;;;;5.03;67.56;101540.66;4976767;28;20050;-77
2023/04/03 08:08:08;;;;;;;6.72;1.60;;;;;;;5.09;67.30;101532.78;4993888;28;20054;-78
2023/04/03 08:10:35;;;;;;;4.45;1.77;;;;;;;5.17;67.41;101534.50;4994584;28;20114;-77
2023/04/03 08:13:03;;;;;;;2.88;1.20;;;;;;;5.21;67.18;101533.59;4976899;28;20088;-77
2023/04/03 08:15:30;;;;;;;2.42;1.10;;;;;;;5.26;67.20;101534.44;4976400;28;20411;-77
2023/04/03 08:17:58;;;;;;;5.70;1.00;;;;;;;5.34;66.87;101532.66;4993645;28;20105;-77
2023/04/03 08:20:25;;;;;;;4.10;0.98;;;;;;;5.40;66.98;101534.38;4994301;28;20066;-78
2023/04/03 08:22:52;;;;;;;3.40;1.00;;;;;;;5.48;66.90;101531.69;4994234;28;20050;-77
2023/04/03 08:25:18;;;;;;;3.47;1.30;;;;;;;5.56;66.66;101539.47;4993736;28;20066;-78
2023/04/03 08:27:45;;;;;;;3.28;1.33;;;;;;;5.63;66.39;101537.66;4993566;28;20073;-78
2023/04/03 08:30:12;;;;;;;4.68;1.15;;;;;;;5.69;65.90;101542.88;4993842;28;20116;-78
2023/04/03 08:32:39;;;;;;;9.25;1.67;;;;;;;5.76;66.12;101534.09;4994030;28;20470;-77
2023/04/03 08:35:06;;;;;;;6.68;1.58;;;;;;;5.85;65.76;101541.00;4992823;28;20561;-77
2023/04/03 08:37:36;;;;;;;3.25;1.35;;;;;;;5.91;64.64;101545.31;4993576;28;20133;-77
2023/04/03 08:40:10;;;;;;;5.68;1.58;;;;;;;5.98;64.81;101533.94;4993804;28;20058;-77
2023/04/03 08:43:05;;;;;;;4.10;1.42;;;;;;;6.04;62.27;101531.28;4976379;28;20058;-78
2023/04/03 08:45:44;;;;;;;3.13;1.35;;;;;;;6.15;62.42;101528.56;4993388;28;20062;-78
2023/04/03 08:48:41;;;;;;;2.58;1.00;;;;;;;6.23;61.95;101524.13;4993147;28;20054;-78
2023/04/03 08:51:17;;;;;;;3.50;1.10;;;;;;;6.34;62.03;101529.25;4993340;28;20090;-78
2023/04/03 08:53:54;;;;;;;3.70;1.10;;;;;;;6.44;63.18;101521.28;4993697;28;20141;-77
2023/04/03 08:56:22;;;;;;;3.63;1.50;;;;;;;6.53;64.68;101531.63;4993142;28;20061;-78
2023/04/03 08:59:03;;;;;;;4.30;1.00;;;;;;;6.59;63.94;101534.22;4993078;28;20054;-77
2023/04/03 09:01:36;;;;;;;3.95;1.20;;;;;;;6.67;61.51;101528.00;4993481;28;20058;-77
2023/04/03 09:04:11;;;;;;;3.85;1.25;;;;;;;6.72;61.45;101531.41;4976275;28;20065;-77
2023/04/03 09:06:38;;;;;;;9.05;1.30;;;;;;;6.84;64.27;101530.41;4993104;28;20054;-77
2023/04/03 09:09:40;;;;;;;3.50;0.85;;;;;;;6.88;59.62;101527.72;4993240;28;20089;-78
2023/04/03 09:12:49;;;;;;;4.80;1.30;;;;;;;6.98;59.71;101532.84;4993209;28;20058;-78
2023/04/03 09:15:20;;;;;;;2.88;1.02;;;;;;;7.12;64.10;101536.16;4982631;28;20050;-79
2023/04/03 09:18:16;;;;;;;5.53;1.30;;;;;;;7.20;61.40;101527.31;4992770;28;20062;-78
2023/04/03 09:20:56;;;;;;;2.20;0.90;;;;;;;7.28;60.64;101534.19;4993013;28;20054;-78
2023/04/03 09:23:41;;;;;;;2.22;1.13;;;;;;;7.38;63.63;101518.31;4993516;28;20054;-78
2023/04/03 09:26:19;;;;;;;4.65;1.10;;;;;;;7.43;59.85;101542.69;4990119;28;20073;-78
2023/04/03 09:28:45;;;;;;;3.47;1.08;;;;;;;7.52;63.17;101534.69;4992178;28;20054;-78
2023/04/03 09:31:30;;;;;;;5.20;1.33;;;;;;;7.56;59.62;101539.00;4993131;28;20085;-78
2023/04/03 09:34:03;;;;;;;5.97;1.55;;;;;;;7.66;61.67;101541.47;4992796;28;20454;-78
2023/04/03 09:36:46;;;;;;;1.35;0.73;;;;;;;7.73;59.16;101537.00;4992657;28;20054;-78
2023/04/03 09:39:14;;;;;;;;;;;;;;;7.84;61.33;101532.44;4975802;28;20046;-78
2023/04/03 09:41:41;;;;;;;5.03;1.10;;;;;;;7.96;63.45;101531.34;4992874;28;19926;-78
2023/04/03 09:44:22;;;;;;;4.40;1.35;;;;;;;7.98;60.08;101537.47;4992904;28;20050;-78
2023/04/03 09:46:49;;;;;;;2.95;1.10;;;;;;;8.07;62.86;101531.16;4991002;28;20539;-78
2023/04/03 09:49:17;;;;;;;4.10;1.65;;;;;;;8.12;62.48;101529.34;4304584;23;20157;-79
2023/04/03 09:51:45;;;;;;;2.55;1.10;;;;;;;8.19;62.88;101525.69;4991096;28;20518;-80
2023/04/03 09:54:31;;;;;;;2.90;1.20;;;;;;;8.27;58.89;101533.47;4989988;28;20066;-81
2023/04/03 09:57:07;;;;;;;4.18;1.15;;;;;;;8.39;60.23;101526.22;4990605;28;20460;-81
2023/04/03 09:59:33;;;;;;;3.88;0.93;;;;;;;8.50;62.47;101531.25;4991008;28;20057;-80
2023/04/03 10:02:16;;;;;;;3.08;1.17;;;;;;;8.55;60.14;101525.06;4991168;28;20062;-80
2023/04/03 10:04:42;;;;;;;4.07;1.20;;;;;;;8.65;62.46;101525.75;4990840;28;20054;-80
2023/04/03 10:07:36;;;;;;;4.40;1.40;;;;;;;8.67;58.00;101529.19;4990839;28;20105;-81
2023/04/03 10:10:25;;;;;;;3.05;1.25;;;;;;;8.73;58.18;101530.84;4985260;28;20050;-81
2023/04/03 10:13:20;;;;;;;4.03;1.17;;;;;;;8.79;58.64;101517.56;4989688;28;20425;-80
2023/04/03 10:16:06;;;;;;;4.22;1.25;;;;;;;8.87;58.56;101527.94;4980230;28;20442;-80
2023/04/03 10:19:01;;;;;;;7.18;1.20;;;;;;;8.94;58.67;101519.00;4990594;28;20080;-80
2023/04/03 10:21:48;;;;;;;4.68;1.75;;;;;;;9.01;58.45;101518.88;4990572;28;20062;-80
2023/04/03 10:24:24;;;;;;;3.80;1.10;;;;;;;9.09;57.91;101520.44;4990058;28;20066;-80
2023/04/03 10:27:13;;;;;;;3.53;1.65;;;;;;;9.15;57.62;101511.56;4989683;28;20058;-80
2023/04/03 10:29:58;;;;;;;4.05;1.42;;;;;;;9.22;57.03;101505.28;4990312;28;20065;-80
2023/04/03 10:32:45;;;;;;;4.22;1.63;;;;;;;9.33;59.66;101498.88;4990519;28;20057;-80
2023/04/03 10:35:41;;;;;;;4.25;1.42;;;;;;;9.41;57.71;101496.94;4990046;28;20057;-80
2023/04/03 10:38:26;;;;;;;4.97;1.27;;;;;;;9.58;61.64;101493.03;4990145;28;20137;-80
2023/04/03 10:41:11;;;;;;;3.38;1.02;;;;;;;9.67;57.02;101487.56;4990427;28;20354;-80
2023/04/03 10:43:49;;;;;;;7.55;1.90;;;;;;;9.80;57.24;101489.88;4990481;28;20076;-81
2023/04/03 10:46:16;;;;;;;4.90;1.27;;;;;;;9.90;60.58;101486.09;4989673;28;20066;-81
2023/04/03 10:48:55;;;;;;;4.05;1.77;;;;;;;9.94;57.45;101492.16;4989731;28;20069;-81
2023/04/03 10:51:41;;;;;;;5.38;2.28;;;;;;;9.96;55.97;101490.34;4989116;28;20129;-80
2023/04/03 10:54:28;;;;;;;11.32;5.35;;;;;;;10.02;57.43;101482.28;4990475;28;20054;-81
2023/04/03 10:57:01;;;;;;;9.23;5.90;;;;;;;10.04;56.74;101486.59;4989415;28;20088;-81
2023/04/03 10:59:58;;;;;;;27.98;14.32;;;;;;;10.14;59.52;101481.94;4990306;28;20054;-81
2023/04/03 11:02:55;;;;;;;26.15;12.45;;;;;;;10.22;56.96;101479.09;4989986;28;20054;-81
2023/04/03 11:05:50;;;;;;;24.40;10.50;;;;;;;10.37;56.01;101477.81;4988600;28;20089;-81
2023/04/03 11:08:49;;;;;;;7.10;4.15;;;;;;;10.61;59.32;101477.19;4989605;28;20457;-80
2023/04/03 11:11:23;;;;;;;8.13;3.08;;;;;;;10.92;61.73;101473.63;4976477;28;20062;-80
2023/04/03 11:13:54;;;;;;;18.95;9.75;;;;;;;11.28;62.01;101478.63;4990347;28;20061;-80
2023/04/03 11:16:25;;;;;;;13.55;4.72;;;;;;;11.74;62.53;101472.75;4988611;28;20111;-81
2023/04/03 11:18:56;;;;;;;22.65;14.60;;;;;;;12.30;66.34;101468.16;4988445;28;20064;-80
2023/04/03 11:21:43;;;;;;;12.30;7.20;;;;;;;12.92;59.32;101464.13;4989946;28;20058;-81
2023/04/03 11:24:21;;;;;;;6.28;3.08;;;;;;;13.57;58.35;101468.63;4989770;28;20472;-81
2023/04/03 11:26:52;;;;;;;6.82;3.75;;;;;;;14.18;60.32;101454.50;4987904;28;20058;-81
2023/04/03 11:29:23;;;;;;;6.40;2.35;;;;;;;14.66;57.76;101463.84;4989915;28;20069;-81
2023/04/03 11:32:13;;;;;;;3.00;1.55;;;;;;;14.89;52.92;101459.25;4989930;28;20113;-81
2023/04/03 11:34:43;;;;;;;5.38;1.65;;;;;;;14.99;54.18;101444.63;4988286;28;20402;-81
2023/04/03 11:37:32;;;;;;;8.13;4.93;;;;;;;15.07;52.44;101441.59;4989604;28;20073;-81
2023/04/03 11:40:04;;;;;;;3.33;1.75;;;;;;;15.20;53.79;101448.03;4989838;28;20062;-81
2023/04/03 11:42:42;;;;;;;3.37;1.63;;;;;;;15.22;51.07;101443.50;4988526;28;20058;-81
2023/04/03 11:45:27;;;;;;;4.28;1.90;;;;;;;15.01;48.78;101440.09;4988248;28;20050;-81
2023/04/03 11:47:55;;;;;;;4.15;1.60;;;;;;;14.75;49.94;101444.84;4989337;28;20066;-81
2023/04/03 11:50:34;;;;;;;9.18;5.22;;;;;;;14.35;47.45;101441.41;4988230;28;20405;-81